createdAt,value
2022-09-09T00:02:22.876Z,6.45
2022-09-09T00:05:05.751Z,7.22
2022-09-09T00:07:49.474Z,7.93
2022-09-09T00:10:43.019Z,6.03
2022-09-09T00:13:47.884Z,6.88
2022-09-09T00:16:25.260Z,6.43
2022-09-09T00:19:26.001Z,6.25
2022-09-09T00:22:18.651Z,6.65
2022-09-09T00:24:57.840Z,6.15
2022-09-09T00:27:40.912Z,5.65
2022-09-09T00:30:21.518Z,6.63
2022-09-09T00:33:03.919Z,6.97
2022-09-09T00:35:35.844Z,6.15
2022-09-09T00:38:16.192Z,7.32
2022-09-09T00:40:54.019Z,7.72
2022-09-09T00:43:41.652Z,6.65
2022-09-09T00:46:51.782Z,6.75
2022-09-09T00:49:46.939Z,7.32
2022-09-09T00:52:53.563Z,6.20
2022-09-09T00:55:38.451Z,7.88
2022-09-09T00:58:09.464Z,6.82
2022-09-09T01:00:46.442Z,7.63
2022-09-09T01:03:25.572Z,7.72
2022-09-09T01:06:38.040Z,7.35
2022-09-09T01:09:28.112Z,6.78
2022-09-09T01:12:13.685Z,7.60
2022-09-09T01:17:25.530Z,6.93
2022-09-09T01:20:14.798Z,5.70
2022-09-09T01:23:09.321Z,7.20
2022-09-09T01:25:45.049Z,7.63
2022-09-09T01:28:20.461Z,6.93
2022-09-09T01:30:47.287Z,8.98
2022-09-09T01:33:19.221Z,8.50
2022-09-09T01:36:07.828Z,8.70
2022-09-09T01:38:36.351Z,9.18
2022-09-09T01:41:04.402Z,7.95
2022-09-09T01:43:31.564Z,7.55
2022-09-09T01:46:03.300Z,8.93
2022-09-09T01:48:31.567Z,7.45
2022-09-09T01:50:58.662Z,8.93
2022-09-09T01:53:25.857Z,8.73
2022-09-09T01:56:01.609Z,11.25
2022-09-09T01:58:40.505Z,10.93
2022-09-09T02:01:29.513Z,12.48
2022-09-09T02:03:59.163Z,12.63
2022-09-09T02:06:26.295Z,11.32
2022-09-09T02:09:03.619Z,9.82
2022-09-09T02:11:32.414Z,11.10
2022-09-09T02:14:29.779Z,8.75
2022-09-09T02:17:23.595Z,12.50
2022-09-09T02:20:01.245Z,10.40
2022-09-09T02:22:31.883Z,12.68
2022-09-09T02:25:01.090Z,14.23
2022-09-09T02:27:29.176Z,12.93
2022-09-09T02:29:58.573Z,13.77
2022-09-09T02:32:26.591Z,13.15
2022-09-09T02:35:05.451Z,13.43
2022-09-09T02:37:40.737Z,12.82
2022-09-09T02:40:11.792Z,15.20
2022-09-09T02:42:48.076Z,14.77
2022-09-09T02:45:21.355Z,15.35
2022-09-09T02:48:31.048Z,14.75
2022-09-09T02:51:32.275Z,16.88
2022-09-09T02:54:25.453Z,13.95
2022-09-09T02:56:57.359Z,13.27
2022-09-09T02:59:26.517Z,13.50
2022-09-09T03:01:54.705Z,14.82
2022-09-09T03:04:21.733Z,15.48
2022-09-09T03:06:48.644Z,14.20
2022-09-09T03:09:15.389Z,14.57
2022-09-09T03:11:42.283Z,15.23
2022-09-09T03:14:09.583Z,15.40
2022-09-09T03:16:36.411Z,16.60
2022-09-09T03:19:03.274Z,17.67
2022-09-09T03:21:30.764Z,18.05
2022-09-09T03:23:58.422Z,20.10
2022-09-09T03:26:25.639Z,15.77
2022-09-09T03:28:53.000Z,18.48
2022-09-09T03:31:20.746Z,19.45
2022-09-09T03:33:47.623Z,17.63
2022-09-09T03:36:16.043Z,18.17
2022-09-09T03:38:43.035Z,19.42
2022-09-09T03:41:09.878Z,20.67
2022-09-09T03:43:37.634Z,17.85
2022-09-09T03:46:04.590Z,19.40
2022-09-09T03:48:31.423Z,19.23
2022-09-09T03:51:01.911Z,20.30
2022-09-09T03:53:29.957Z,17.30
2022-09-09T03:56:01.063Z,21.92
2022-09-09T03:58:29.150Z,18.63
2022-09-09T04:00:59.373Z,17.58
2022-09-09T04:03:28.210Z,19.83
2022-09-09T04:05:58.117Z,17.05
2022-09-09T04:08:28.043Z,20.42
2022-09-09T04:10:59.555Z,18.42
2022-09-09T04:13:27.620Z,19.08
2022-09-09T04:16:00.386Z,16.75
2022-09-09T04:18:29.403Z,20.15
2022-09-09T04:20:58.478Z,20.00
2022-09-09T04:23:29.964Z,19.65
2022-09-09T04:25:58.924Z,21.13
2022-09-09T04:28:30.787Z,16.75
2022-09-09T04:30:58.088Z,18.80
2022-09-09T04:33:28.672Z,22.48
2022-09-09T04:35:55.715Z,21.10
2022-09-09T04:38:24.130Z,19.75
2022-09-09T04:40:53.206Z,18.42
2022-09-09T04:43:20.137Z,19.27
2022-09-09T04:45:49.607Z,18.95
2022-09-09T04:48:16.882Z,19.83
2022-09-09T04:50:43.639Z,21.05
2022-09-09T04:53:11.336Z,20.60
2022-09-09T04:55:38.759Z,23.38
2022-09-09T04:58:09.722Z,23.13
2022-09-09T05:00:37.798Z,21.55
2022-09-09T05:03:09.941Z,21.02
2022-09-09T05:05:37.417Z,19.45
2022-09-09T05:08:06.561Z,23.08
2022-09-09T05:10:34.667Z,23.60
2022-09-09T05:13:01.532Z,24.23
2022-09-09T05:15:28.355Z,24.75
2022-09-09T05:18:02.192Z,25.05
2022-09-09T05:20:29.496Z,26.75
2022-09-09T05:22:57.997Z,29.05
2022-09-09T05:25:27.159Z,28.05
2022-09-09T05:27:54.890Z,25.08
2022-09-09T05:30:25.910Z,25.60
2022-09-09T05:32:52.735Z,23.10
2022-09-09T05:35:20.331Z,26.60
2022-09-09T05:37:47.244Z,26.08
2022-09-09T05:40:14.215Z,26.17
2022-09-09T05:42:42.046Z,21.92
2022-09-09T05:45:10.311Z,26.98
2022-09-09T05:47:38.486Z,24.25
2022-09-09T05:50:06.222Z,22.85
2022-09-09T05:52:33.787Z,26.67
2022-09-09T05:55:01.140Z,27.15
2022-09-09T05:57:28.091Z,23.98
2022-09-09T05:59:54.886Z,22.10
2022-09-09T06:02:22.016Z,23.33
2022-09-09T06:04:48.894Z,24.05
2022-09-09T06:07:15.925Z,23.90
2022-09-09T06:09:42.747Z,25.65
2022-09-09T06:12:10.160Z,24.08
2022-09-09T06:14:38.119Z,23.80
2022-09-09T06:17:05.064Z,22.00
2022-09-09T06:19:32.064Z,24.45
2022-09-09T06:21:59.721Z,24.60
2022-09-09T06:24:27.141Z,24.27
2022-09-09T06:26:55.332Z,25.33
2022-09-09T06:29:22.201Z,27.13
2022-09-09T06:31:49.010Z,27.77
2022-09-09T06:34:16.375Z,25.38
2022-09-09T06:36:43.658Z,23.45
2022-09-09T06:39:14.831Z,26.95
2022-09-09T06:41:43.919Z,24.23
2022-09-09T06:44:13.020Z,27.67
2022-09-09T06:46:41.066Z,27.63
2022-09-09T06:49:10.241Z,24.83
2022-09-09T06:51:44.039Z,28.10
2022-09-09T06:54:12.830Z,26.42
2022-09-09T06:56:43.008Z,26.80
2022-09-09T06:59:11.161Z,25.42
2022-09-09T07:01:50.283Z,29.75
2022-09-09T07:04:19.434Z,26.48
2022-09-09T07:06:47.573Z,29.35
2022-09-09T07:09:17.377Z,29.40
2022-09-09T07:11:48.474Z,30.05
2022-09-09T07:14:16.128Z,26.75
2022-09-09T07:16:44.731Z,30.10
2022-09-09T07:19:13.726Z,31.65
2022-09-09T07:21:43.567Z,29.73
2022-09-09T07:24:11.858Z,27.42
2022-09-09T07:26:40.469Z,30.88
2022-09-09T07:29:09.243Z,26.75
2022-09-09T07:31:39.799Z,27.80
2022-09-09T07:34:07.132Z,29.83
2022-09-09T07:36:39.027Z,29.50
2022-09-09T07:39:12.364Z,27.35
2022-09-09T07:41:41.759Z,25.88
2022-09-09T07:44:12.274Z,26.10
2022-09-09T07:46:42.975Z,23.98
2022-09-09T07:49:11.858Z,25.23
2022-09-09T07:51:45.642Z,25.77
2022-09-09T07:54:15.893Z,25.40
2022-09-09T07:56:43.720Z,23.88
2022-09-09T07:59:11.413Z,25.83
2022-09-09T08:01:44.739Z,26.95
2022-09-09T08:04:18.279Z,25.42
2022-09-09T08:06:54.036Z,23.38
2022-09-09T08:09:21.999Z,23.30
2022-09-09T08:11:49.244Z,24.40
2022-09-09T08:14:16.315Z,24.60
2022-09-09T08:16:47.667Z,27.00
2022-09-09T08:19:16.345Z,24.75
2022-09-09T08:21:45.063Z,24.92
2022-09-09T08:24:13.076Z,24.80
2022-09-09T08:26:43.509Z,25.55
2022-09-09T08:29:12.832Z,20.85
2022-09-09T08:31:49.113Z,23.23
2022-09-09T08:34:16.468Z,24.20
2022-09-09T08:36:46.102Z,22.73
2022-09-09T08:39:16.665Z,23.48
2022-09-09T08:42:03.501Z,21.90
2022-09-09T08:44:48.836Z,23.13
2022-09-09T08:48:12.427Z,23.35
2022-09-09T08:50:41.990Z,26.38
2022-09-09T08:53:25.823Z,25.08
2022-09-09T08:56:02.654Z,20.35
2022-09-09T08:58:35.152Z,20.52
2022-09-09T09:01:11.297Z,22.85
2022-09-09T09:03:59.217Z,20.88
2022-09-09T09:07:08.575Z,21.38
2022-09-09T09:09:50.855Z,19.67
2022-09-09T09:12:25.090Z,22.38
2022-09-09T09:14:52.107Z,20.17
2022-09-09T09:17:21.866Z,22.95
2022-09-09T09:19:50.916Z,19.38
2022-09-09T09:22:35.307Z,21.00
2022-09-09T09:25:24.481Z,18.40
2022-09-09T09:27:54.047Z,21.00
2022-09-09T09:30:30.061Z,18.77
2022-09-09T09:33:16.634Z,18.67
2022-09-09T09:35:44.741Z,17.15
2022-09-09T09:41:11.706Z,17.55
2022-09-09T09:43:43.752Z,18.42
2022-09-09T09:46:26.952Z,18.67
2022-09-09T09:49:07.105Z,17.05
2022-09-09T09:51:35.181Z,17.02
2022-09-09T09:54:14.462Z,16.55
2022-09-09T09:56:42.219Z,16.50
2022-09-09T09:59:38.710Z,15.60
2022-09-09T10:02:26.592Z,15.48
2022-09-09T10:05:18.097Z,17.40
2022-09-09T10:07:49.138Z,15.32
2022-09-09T10:10:36.427Z,16.42
2022-09-09T10:13:56.259Z,12.88
2022-09-09T10:16:56.770Z,15.18
2022-09-09T10:19:38.563Z,16.70
2022-09-09T10:22:28.999Z,15.88
2022-09-09T10:25:13.818Z,15.27
2022-09-09T10:28:26.817Z,17.92
2022-09-09T10:31:18.706Z,17.80
2022-09-09T10:34:19.268Z,18.08
2022-09-09T10:36:50.610Z,17.73
2022-09-09T10:39:40.690Z,17.67
2022-09-09T10:42:20.542Z,18.42
2022-09-09T10:45:15.302Z,19.48
2022-09-09T10:48:04.003Z,20.30
2022-09-09T10:54:07.076Z,19.17
2022-09-09T10:56:35.350Z,18.20
2022-09-09T10:59:10.303Z,17.95
2022-09-09T11:02:29.231Z,18.10
2022-09-09T11:05:21.629Z,16.40
2022-09-09T11:08:13.773Z,16.92
2022-09-09T11:11:13.055Z,19.25
2022-09-09T11:14:02.933Z,18.63
2022-09-09T11:16:53.637Z,17.67
2022-09-09T11:19:33.243Z,18.83
2022-09-09T11:22:02.510Z,16.55
2022-09-09T11:25:21.900Z,16.25
2022-09-09T11:28:18.930Z,15.85
2022-09-09T11:31:29.545Z,15.07
2022-09-09T11:34:17.484Z,14.45
2022-09-09T11:37:33.834Z,16.55
2022-09-09T11:40:24.708Z,14.95
2022-09-09T11:43:06.482Z,15.27
2022-09-09T11:45:36.582Z,13.57
2022-09-09T11:48:07.115Z,13.10
2022-09-09T11:50:37.926Z,13.70
2022-09-09T11:53:24.074Z,13.07
2022-09-09T11:56:15.695Z,11.98
2022-09-09T11:59:04.829Z,12.43
2022-09-09T12:01:35.721Z,12.43
2022-09-09T12:04:21.308Z,12.55
2022-09-09T12:06:57.647Z,11.15
2022-09-09T12:09:34.719Z,11.70
2022-09-09T12:12:14.258Z,11.65
2022-09-09T12:14:46.614Z,9.32
2022-09-09T12:17:16.381Z,10.40
2022-09-09T12:19:43.391Z,10.63
2022-09-09T12:22:40.845Z,9.63
2022-09-09T12:26:02.090Z,9.55
2022-09-09T12:28:58.335Z,8.80
2022-09-09T12:31:48.129Z,9.57
2022-09-09T12:34:34.786Z,9.70
2022-09-09T12:37:20.375Z,9.18
2022-09-09T12:39:56.708Z,9.27
2022-09-09T12:42:24.708Z,8.32
2022-09-09T12:44:59.758Z,9.20
2022-09-09T12:50:29.107Z,9.18
2022-09-09T12:52:59.931Z,9.32
2022-09-09T12:55:34.875Z,8.95
2022-09-09T12:58:05.891Z,8.35
2022-09-09T13:00:34.915Z,8.18
2022-09-09T13:03:18.200Z,8.27
2022-09-09T13:05:44.972Z,8.02
2022-09-09T13:08:14.788Z,7.50
2022-09-09T13:10:53.795Z,8.80
2022-09-09T13:13:31.012Z,8.75
2022-09-09T13:16:00.767Z,7.60
2022-09-09T13:18:32.225Z,8.02
2022-09-09T13:20:59.432Z,7.57
2022-09-09T13:23:36.323Z,7.88
2022-09-09T13:26:08.894Z,7.13
2022-09-09T13:28:39.260Z,6.38
2022-09-09T13:31:25.092Z,7.07
2022-09-09T13:33:54.234Z,6.82
2022-09-09T13:36:32.085Z,6.40
2022-09-09T13:39:01.263Z,7.57
2022-09-09T13:41:36.114Z,8.73
2022-09-09T13:44:05.221Z,9.25
2022-09-09T13:46:42.261Z,8.48
2022-09-09T13:49:11.924Z,9.43
2022-09-09T13:51:40.827Z,10.13
2022-09-09T13:54:11.542Z,10.80
2022-09-09T13:56:41.142Z,9.15
2022-09-09T13:59:14.249Z,8.77
2022-09-09T14:01:41.127Z,9.48
2022-09-09T14:04:09.780Z,7.80
2022-09-09T14:06:40.377Z,10.13
2022-09-09T14:09:16.783Z,9.63
2022-09-09T14:11:45.295Z,9.27
2022-09-09T14:14:12.295Z,9.13
2022-09-09T14:16:39.113Z,7.75
2022-09-09T14:19:06.054Z,2.40
2022-09-09T14:21:33.745Z,2.42
2022-09-09T14:24:00.533Z,2.05
2022-09-09T14:26:27.490Z,2.20
2022-09-09T14:28:56.027Z,2.63
2022-09-09T14:31:25.223Z,2.30
2022-09-09T14:33:53.768Z,2.70
2022-09-09T14:36:20.968Z,2.78
2022-09-09T14:38:48.368Z,2.10
2022-09-09T14:41:18.202Z,2.20
2022-09-09T14:43:46.291Z,2.08
2022-09-09T14:46:18.018Z,2.00
2022-09-09T14:48:46.423Z,2.50
2022-09-09T14:51:20.881Z,2.63
2022-09-09T14:53:48.243Z,2.80
2022-09-09T14:56:21.330Z,3.15
2022-09-09T14:58:51.752Z,3.08
2022-09-09T15:01:21.635Z,2.95
2022-09-09T15:03:55.448Z,3.50
2022-09-09T15:06:24.291Z,3.10
2022-09-09T15:08:53.868Z,3.10
2022-09-09T15:11:22.198Z,3.40
2022-09-09T15:13:53.257Z,3.22
2022-09-09T15:16:21.713Z,3.00
2022-09-09T15:18:54.268Z,3.05
2022-09-09T15:21:24.197Z,3.00
2022-09-09T15:23:51.054Z,2.00
2022-09-09T15:26:18.970Z,2.03
2022-09-09T15:28:48.455Z,2.13
2022-09-09T15:31:27.968Z,2.08
2022-09-09T15:34:04.502Z,2.10
2022-09-09T15:36:42.305Z,2.15
2022-09-09T15:39:13.995Z,1.70
2022-09-09T15:41:41.239Z,2.10
2022-09-09T15:44:08.447Z,2.47
2022-09-09T15:46:44.818Z,2.45
2022-09-09T15:49:19.417Z,2.80
2022-09-09T15:51:48.886Z,2.97
2022-09-09T15:54:19.573Z,2.55
2022-09-09T15:56:49.868Z,2.55
2022-09-09T15:59:17.229Z,2.22
2022-09-09T16:01:45.168Z,2.67
2022-09-09T16:04:12.811Z,2.97
2022-09-09T16:06:40.346Z,2.72
2022-09-09T16:09:08.971Z,2.45
2022-09-09T16:11:39.077Z,3.50
2022-09-09T16:14:07.794Z,3.28
2022-09-09T16:16:36.362Z,3.22
2022-09-09T16:19:14.081Z,3.00
2022-09-09T16:21:50.264Z,3.13
2022-09-09T16:24:20.612Z,3.03
2022-09-09T16:26:53.963Z,2.90
2022-09-09T16:29:22.876Z,2.85
2022-09-09T16:31:51.617Z,2.83
2022-09-09T16:34:19.838Z,3.05
2022-09-09T16:36:48.291Z,3.00
2022-09-09T16:39:24.188Z,3.20
2022-09-09T16:41:51.208Z,3.72
2022-09-09T16:44:19.909Z,4.35
2022-09-09T16:46:49.919Z,3.80
2022-09-09T16:49:17.404Z,3.40
2022-09-09T16:51:48.181Z,4.05
2022-09-09T16:54:18.241Z,3.63
2022-09-09T16:56:47.769Z,3.80
2022-09-09T16:59:19.863Z,3.80
2022-09-09T17:01:50.568Z,3.20
2022-09-09T17:04:25.385Z,2.63
2022-09-09T17:06:54.928Z,1.20
2022-09-09T17:09:23.920Z,0.90
2022-09-09T17:11:53.465Z,1.10
2022-09-09T17:14:22.504Z,0.90
2022-09-09T17:16:50.314Z,1.15
2022-09-09T17:19:17.686Z,1.60
2022-09-09T17:22:12.517Z,1.30
2022-09-09T17:24:32.120Z,0.98
2022-09-09T17:26:58.990Z,0.90
2022-09-09T17:29:26.443Z,0.77
2022-09-09T17:31:53.940Z,0.60
2022-09-09T17:34:20.851Z,0.60
2022-09-09T17:36:48.162Z,0.55
2022-09-09T17:39:15.110Z,0.45
2022-09-09T17:41:42.176Z,0.60
2022-09-09T17:44:10.905Z,0.60
2022-09-09T17:46:43.571Z,0.70
2022-09-09T17:49:14.656Z,0.85
2022-09-09T17:51:43.081Z,0.70
2022-09-09T17:54:14.245Z,0.80
2022-09-09T17:56:42.427Z,0.95
2022-09-09T17:59:12.301Z,0.77
2022-09-09T18:01:42.179Z,0.70
2022-09-09T18:04:11.579Z,0.80
2022-09-09T18:06:44.792Z,0.90
2022-09-09T18:09:16.715Z,0.90
2022-09-09T18:11:47.845Z,0.82
2022-09-09T18:14:18.816Z,0.73
2022-09-09T18:16:47.211Z,0.80
2022-09-09T18:19:19.590Z,0.60
2022-09-09T18:21:47.330Z,0.98
2022-09-09T18:24:18.637Z,0.70
2022-09-09T18:26:45.999Z,0.75
2022-09-09T18:29:18.388Z,0.68
2022-09-09T18:31:45.172Z,1.08
2022-09-09T18:34:14.860Z,0.95
2022-09-09T18:36:45.091Z,0.77
2022-09-09T18:39:15.305Z,0.93
2022-09-09T18:41:46.785Z,0.88
2022-09-09T18:44:18.024Z,1.00
2022-09-09T18:46:45.552Z,1.20
2022-09-09T18:49:15.389Z,1.25
2022-09-09T18:51:45.279Z,1.27
2022-09-09T18:54:34.448Z,1.00
2022-09-09T18:57:01.992Z,0.90
2022-09-09T18:59:29.399Z,0.88
2022-09-09T19:01:56.682Z,1.55
2022-09-09T19:04:25.446Z,0.82
2022-09-09T19:06:58.250Z,1.20
2022-09-09T19:09:33.914Z,1.20
2022-09-09T19:12:02.216Z,1.00
2022-09-09T19:14:30.163Z,1.10
2022-09-09T19:16:57.131Z,1.40
2022-09-09T19:19:32.183Z,1.00
2022-09-09T19:24:32.029Z,1.45
2022-09-09T19:27:04.539Z,1.83
2022-09-09T19:29:35.031Z,1.60
2022-09-09T19:32:42.750Z,1.45
2022-09-09T19:34:51.731Z,1.63
2022-09-09T19:37:19.046Z,1.85
2022-09-09T19:39:47.504Z,1.63
2022-09-09T19:42:14.687Z,1.80
2022-09-09T19:44:41.723Z,1.50
2022-09-09T19:47:08.565Z,1.90
2022-09-09T19:49:37.330Z,2.00
2022-09-09T19:52:04.880Z,2.75
2022-09-09T19:54:32.245Z,2.50
2022-09-09T19:57:00.073Z,2.55
2022-09-09T19:59:27.746Z,2.30
2022-09-09T20:01:56.976Z,2.60
2022-09-09T20:04:24.220Z,2.10
2022-09-09T20:06:52.247Z,2.60
2022-09-09T20:09:20.557Z,3.13
2022-09-09T20:11:49.060Z,2.85
2022-09-09T20:14:17.229Z,2.80
2022-09-09T20:16:45.863Z,3.00
2022-09-09T20:19:16.334Z,2.67
2022-09-09T20:21:49.660Z,2.80
2022-09-09T20:24:23.278Z,3.13
2022-09-09T20:26:51.297Z,3.20
2022-09-09T20:29:20.031Z,3.05
2022-09-09T20:31:48.351Z,3.00
2022-09-09T20:34:19.226Z,3.40
2022-09-09T20:36:47.236Z,3.70
2022-09-09T20:39:17.400Z,4.30
2022-09-09T20:41:46.240Z,5.35
2022-09-09T20:44:17.015Z,6.00
2022-09-09T20:46:50.640Z,5.90
2022-09-09T20:49:20.799Z,5.72
2022-09-09T20:51:50.573Z,5.28
2022-09-09T20:54:23.916Z,5.20
2022-09-09T20:56:53.355Z,4.95
2022-09-09T20:59:29.156Z,5.15
2022-09-09T21:01:57.235Z,5.35
2022-09-09T21:04:25.261Z,5.35
2022-09-09T21:06:52.844Z,5.40
2022-09-09T21:09:23.311Z,5.90
2022-09-09T21:11:50.983Z,5.35
2022-09-09T21:14:17.840Z,5.03
2022-09-09T21:16:44.904Z,5.25
2022-09-09T21:19:12.345Z,3.80
2022-09-09T21:21:39.359Z,4.22
2022-09-09T21:24:06.568Z,4.10
2022-09-09T21:26:33.392Z,4.07
2022-09-09T21:29:00.179Z,4.07
2022-09-09T21:31:28.662Z,4.20
2022-09-09T21:33:57.764Z,4.13
2022-09-09T21:36:25.528Z,4.30
2022-09-09T21:38:52.314Z,3.95
2022-09-09T21:41:19.593Z,3.70
2022-09-09T21:43:52.801Z,3.55
2022-09-09T21:46:20.135Z,2.90
2022-09-09T21:48:46.975Z,3.50
2022-09-09T21:51:17.035Z,3.58
2022-09-09T21:53:44.829Z,2.97
2022-09-09T21:56:16.227Z,3.53
2022-09-09T21:58:43.556Z,4.20
2022-09-09T22:01:14.893Z,4.13
2022-09-09T22:03:42.836Z,4.15
2022-09-09T22:06:14.833Z,3.90
2022-09-09T22:08:42.823Z,4.55
2022-09-09T22:11:22.673Z,3.70
2022-09-09T22:13:49.915Z,4.00
2022-09-09T22:16:20.901Z,3.97
2022-09-09T22:18:58.138Z,4.28
2022-09-09T22:21:27.301Z,3.75
2022-09-09T22:24:01.682Z,4.43
2022-09-09T22:26:32.924Z,4.25
2022-09-09T22:28:59.772Z,4.22
2022-09-09T22:31:28.588Z,4.13
2022-09-09T22:33:56.069Z,4.15
2022-09-09T22:36:23.348Z,4.15
2022-09-09T22:38:53.875Z,3.97
2022-09-09T22:41:21.117Z,4.30
2022-09-09T22:43:48.402Z,4.00
2022-09-09T22:46:15.593Z,3.70
2022-09-09T22:48:43.364Z,3.88
2022-09-09T22:51:14.236Z,4.50
2022-09-09T22:53:43.242Z,4.25
2022-09-09T22:56:18.572Z,3.65
2022-09-09T22:58:47.191Z,4.22
2022-09-09T23:01:19.468Z,3.95
2022-09-09T23:03:47.760Z,4.43
2022-09-09T23:06:24.936Z,5.57
2022-09-09T23:08:58.482Z,5.22
2022-09-09T23:11:30.538Z,6.22
2022-09-09T23:14:00.974Z,6.70
2022-09-09T23:16:38.477Z,6.20
2022-09-09T23:19:10.199Z,6.90
2022-09-09T23:21:39.314Z,5.60
2022-09-09T23:24:08.671Z,6.07
2022-09-09T23:26:35.461Z,5.68
2022-09-09T23:29:02.616Z,6.60
2022-09-09T23:31:33.864Z,5.47
2022-09-09T23:34:01.989Z,6.90
2022-09-09T23:36:30.221Z,5.53
2022-09-09T23:38:59.263Z,6.05
2022-09-09T23:41:27.148Z,6.25
2022-09-09T23:43:54.559Z,5.90
2022-09-09T23:46:28.692Z,5.68
2022-09-09T23:48:57.628Z,5.30
2022-09-09T23:51:28.274Z,5.00
2022-09-09T23:53:57.660Z,4.78
2022-09-09T23:56:31.915Z,4.38
2022-09-09T23:58:58.825Z,5.17
